Zlatibor, Serbia
Current Conditions -  °F | °C
As of 8:00 PM on Wednesday 26 Nov 2014 (Local Time) from LYUZ Reporting Station
Haze Haze  
Wind Chill: 21°   Ceiling: 1500
Heat Index: 28°   Visibility: 1.8mi
Dew Point: 28°   Wind: 7mph
Humidity: 100%   Direction: 90°E
Pressure: 30.06"   Gusts: NA
Location:  43.72°N, 19.7°E
Report Text: LYUZ 261800Z 09006KT 3000 BR BKN015 M02/M02 Q1018
Loading
Personal Weather Stations






























Interactive Weather Map New forecast layout! Learn more

10-Day Weather Forecast

Advertisements
Track Severe Weather on mobile